sensor_id;sensor_type;location;lat;lon;timestamp;pressure;altitude;pressure_sealevel;temperature;humidity
63090;BME280;49174;43.198;27.824;2023-01-26T05:41:25;102422.56;;;2.99;97.62
63090;BME280;49174;43.198;27.824;2023-01-26T05:43:51;102409.09;;;3.00;97.40
63090;BME280;49174;43.198;27.824;2023-01-26T05:46:16;102406.56;;;2.99;97.40
63090;BME280;49174;43.198;27.824;2023-01-26T05:48:42;102405.50;;;3.01;97.03
63090;BME280;49174;43.198;27.824;2023-01-26T05:51:07;102401.22;;;2.99;97.14
63090;BME280;49174;43.198;27.824;2023-01-26T05:53:33;102409.53;;;2.94;97.22
63090;BME280;49174;43.198;27.824;2023-01-26T05:55:58;102413.78;;;2.97;98.18
63090;BME280;49174;43.198;27.824;2023-01-26T05:58:24;102424.56;;;2.95;97.74
63090;BME280;49174;43.198;27.824;2023-01-26T06:00:50;102416.16;;;3.01;96.63
63090;BME280;49174;43.198;27.824;2023-01-26T06:03:16;102424.88;;;3.03;95.91
63090;BME280;49174;43.198;27.824;2023-01-26T06:05:41;102416.38;;;2.98;95.73
63090;BME280;49174;43.198;27.824;2023-01-26T06:08:07;102411.22;;;2.95;95.72
63090;BME280;49174;43.198;27.824;2023-01-26T06:10:32;102408.22;;;2.87;96.10
63090;BME280;49174;43.198;27.824;2023-01-26T06:12:59;102404.72;;;2.74;96.39
63090;BME280;49174;43.198;27.824;2023-01-26T06:15:24;102408.66;;;2.68;96.91
63090;BME280;49174;43.198;27.824;2023-01-26T06:17:51;102411.22;;;2.69;97.05
63090;BME280;49174;43.198;27.824;2023-01-26T06:20:16;102405.66;;;2.73;96.81
63090;BME280;49174;43.198;27.824;2023-01-26T06:22:42;102395.97;;;2.72;96.50
63090;BME280;49174;43.198;27.824;2023-01-26T06:25:07;102391.81;;;2.67;96.98
63090;BME280;49174;43.198;27.824;2023-01-26T06:27:33;102400.75;;;2.66;97.52
63090;BME280;49174;43.198;27.824;2023-01-26T06:29:59;102400.75;;;2.66;98.21
63090;BME280;49174;43.198;27.824;2023-01-26T06:32:25;102396.81;;;2.72;98.41
63090;BME280;49174;43.198;27.824;2023-01-26T06:34:52;102395.00;;;2.73;98.63
63090;BME280;49174;43.198;27.824;2023-01-26T06:37:17;102395.53;;;2.78;99.11
63090;BME280;49174;43.198;27.824;2023-01-26T06:39:44;102405.25;;;2.91;99.82
63090;BME280;49174;43.198;27.824;2023-01-26T06:42:10;102399.63;;;2.96;99.43
63090;BME280;49174;43.198;27.824;2023-01-26T06:44:37;102396.31;;;3.05;98.84
63090;BME280;49174;43.198;27.824;2023-01-26T06:52:31;102394.91;;;3.00;99.20
63090;BME280;49174;43.198;27.824;2023-01-26T06:57:38;102391.78;;;3.31;99.63
63090;BME280;49174;43.198;27.824;2023-01-26T07:02:46;102371.78;;;3.63;98.76
63090;BME280;49174;43.198;27.824;2023-01-26T07:07:51;102365.38;;;3.52;96.56
63090;BME280;49174;43.198;27.824;2023-01-26T07:13:11;102366.78;;;3.45;97.75
63090;BME280;49174;43.198;27.824;2023-01-26T07:21:20;102368.44;;;3.72;96.88
63090;BME280;49174;43.198;27.824;2023-01-26T07:23:50;102365.97;;;3.69;96.59
63090;BME280;49174;43.198;27.824;2023-01-26T07:26:28;102366.16;;;3.78;96.94
63090;BME280;49174;43.198;27.824;2023-01-26T07:37:00;102348.78;;;3.97;96.64
63090;BME280;49174;43.198;27.824;2023-01-26T07:39:27;102341.97;;;3.93;94.44
63090;BME280;49174;43.198;27.824;2023-01-26T07:41:53;102334.00;;;3.80;94.76
63090;BME280;49174;43.198;27.824;2023-01-26T07:44:19;102333.63;;;3.73;95.69
63090;BME280;49174;43.198;27.824;2023-01-26T07:46:45;102328.91;;;3.77;96.20
63090;BME280;49174;43.198;27.824;2023-01-26T07:49:12;102325.16;;;3.79;96.44
63090;BME280;49174;43.198;27.824;2023-01-26T07:51:40;102324.22;;;3.92;96.40
63090;BME280;49174;43.198;27.824;2023-01-26T07:54:09;102319.78;;;4.03;96.92
63090;BME280;49174;43.198;27.824;2023-01-26T07:56:38;102316.91;;;4.18;95.81
63090;BME280;49174;43.198;27.824;2023-01-26T07:59:03;102315.22;;;4.17;94.86
63090;BME280;49174;43.198;27.824;2023-01-26T08:01:30;102317.78;;;4.18;93.98
63090;BME280;49174;43.198;27.824;2023-01-26T08:03:55;102320.97;;;4.23;94.49
63090;BME280;49174;43.198;27.824;2023-01-26T08:06:23;102318.16;;;4.25;93.54
63090;BME280;49174;43.198;27.824;2023-01-26T08:08:50;102317.06;;;4.28;94.09
63090;BME280;49174;43.198;27.824;2023-01-26T08:11:17;102314.66;;;4.36;94.26
63090;BME280;49174;43.198;27.824;2023-01-26T08:13:45;102317.94;;;4.39;95.54
63090;BME280;49174;43.198;27.824;2023-01-26T08:16:11;102311.03;;;4.48;95.92
63090;BME280;49174;43.198;27.824;2023-01-26T08:18:38;102309.94;;;4.51;95.35
63090;BME280;49174;43.198;27.824;2023-01-26T08:21:09;102321.88;;;4.46;95.03
63090;BME280;49174;43.198;27.824;2023-01-26T08:23:35;102317.72;;;4.54;95.52
63090;BME280;49174;43.198;27.824;2023-01-26T08:26:04;102317.75;;;4.65;95.63
63090;BME280;49174;43.198;27.824;2023-01-26T08:28:32;102328.94;;;4.70;95.40
63090;BME280;49174;43.198;27.824;2023-01-26T08:31:24;102340.88;;;4.88;94.86
63090;BME280;49174;43.198;27.824;2023-01-26T08:33:51;102339.41;;;4.96;95.19
63090;BME280;49174;43.198;27.824;2023-01-26T08:36:18;102335.28;;;5.03;94.57
63090;BME280;49174;43.198;27.824;2023-01-26T08:38:46;102321.66;;;5.06;93.31
63090;BME280;49174;43.198;27.824;2023-01-26T08:41:12;102319.97;;;5.16;93.18
63090;BME280;49174;43.198;27.824;2023-01-26T08:43:38;102304.75;;;5.17;92.61
63090;BME280;49174;43.198;27.824;2023-01-26T08:46:04;102307.19;;;5.20;92.34
63090;BME280;49174;43.198;27.824;2023-01-26T08:48:30;102302.44;;;5.23;92.34
63090;BME280;49174;43.198;27.824;2023-01-26T08:50:58;102299.25;;;5.41;90.67
63090;BME280;49174;43.198;27.824;2023-01-26T08:53:24;102306.41;;;5.40;91.07
63090;BME280;49174;43.198;27.824;2023-01-26T08:55:52;102306.16;;;5.54;90.20
63090;BME280;49174;43.198;27.824;2023-01-26T08:58:17;102303.56;;;5.64;90.74
63090;BME280;49174;43.198;27.824;2023-01-26T09:00:44;102296.25;;;5.66;88.89
63090;BME280;49174;43.198;27.824;2023-01-26T09:03:10;102296.78;;;5.60;89.41
63090;BME280;49174;43.198;27.824;2023-01-26T09:05:38;102284.81;;;5.64;90.00
63090;BME280;49174;43.198;27.824;2023-01-26T09:08:05;102274.13;;;5.64;88.68
63090;BME280;49174;43.198;27.824;2023-01-26T09:10:32;102269.97;;;5.71;90.57
63090;BME280;49174;43.198;27.824;2023-01-26T09:12:58;102269.75;;;5.63;89.90
63090;BME280;49174;43.198;27.824;2023-01-26T09:15:24;102268.16;;;5.60;90.27
63090;BME280;49174;43.198;27.824;2023-01-26T09:17:50;102253.78;;;5.62;90.69
63090;BME280;49174;43.198;27.824;2023-01-26T09:20:17;102257.47;;;5.60;90.50
63090;BME280;49174;43.198;27.824;2023-01-26T09:22:42;102250.97;;;5.74;90.86
63090;BME280;49174;43.198;27.824;2023-01-26T09:25:09;102244.59;;;5.75;91.19
63090;BME280;49174;43.198;27.824;2023-01-26T09:27:36;102242.88;;;5.86;91.79
63090;BME280;49174;43.198;27.824;2023-01-26T09:30:03;102243.97;;;5.83;91.09
63090;BME280;49174;43.198;27.824;2023-01-26T09:32:29;102235.34;;;5.79;90.61
63090;BME280;49174;43.198;27.824;2023-01-26T09:34:55;102230.50;;;5.73;90.57
63090;BME280;49174;43.198;27.824;2023-01-26T09:37:21;102226.66;;;5.66;91.42
63090;BME280;49174;43.198;27.824;2023-01-26T09:39:46;102216.44;;;5.60;91.49
63090;BME280;49174;43.198;27.824;2023-01-26T09:42:38;102212.19;;;5.57;93.71
63090;BME280;49174;43.198;27.824;2023-01-26T09:45:17;102207.44;;;5.61;94.55
63090;BME280;49174;43.198;27.824;2023-01-26T09:50:35;102203.13;;;5.37;94.69
63090;BME280;49174;43.198;27.824;2023-01-26T09:55:32;102179.94;;;5.59;98.00
63090;BME280;49174;43.198;27.824;2023-01-26T09:58:05;102174.78;;;5.67;98.21
63090;BME280;49174;43.198;27.824;2023-01-26T10:00:49;102169.69;;;5.85;99.52
63090;BME280;49174;43.198;27.824;2023-01-26T10:08:50;102158.53;;;6.01;97.97
63090;BME280;49174;43.198;27.824;2023-01-26T10:11:32;102160.66;;;6.07;97.66
63090;BME280;49174;43.198;27.824;2023-01-26T10:14:11;102148.25;;;6.06;97.22
63090;BME280;49174;43.198;27.824;2023-01-26T10:16:40;102151.66;;;6.08;95.59
63090;BME280;49174;43.198;27.824;2023-01-26T10:21:58;102137.09;;;6.01;95.98
63090;BME280;49174;43.198;27.824;2023-01-26T10:24:26;102120.66;;;6.15;95.47
63090;BME280;49174;43.198;27.824;2023-01-26T10:26:55;102114.72;;;6.12;95.34
63090;BME280;49174;43.198;27.824;2023-01-26T10:29:22;102112.59;;;6.06;96.62
63090;BME280;49174;43.198;27.824;2023-01-26T10:31:47;102118.97;;;6.14;98.12
63090;BME280;49174;43.198;27.824;2023-01-26T10:34:16;102121.84;;;6.22;96.66
63090;BME280;49174;43.198;27.824;2023-01-26T10:36:44;102113.16;;;6.40;98.91
63090;BME280;49174;43.198;27.824;2023-01-26T10:39:14;102099.06;;;6.47;97.84
63090;BME280;49174;43.198;27.824;2023-01-26T10:42:01;102093.56;;;6.49;97.79
63090;BME280;49174;43.198;27.824;2023-01-26T10:44:38;102091.47;;;6.53;98.39
63090;BME280;49174;43.198;27.824;2023-01-26T10:47:16;102093.59;;;6.59;95.54
63090;BME280;49174;43.198;27.824;2023-01-26T10:49:42;102094.00;;;6.54;95.26
63090;BME280;49174;43.198;27.824;2023-01-26T10:54:47;102079.72;;;6.44;95.94
63090;BME280;49174;43.198;27.824;2023-01-26T10:57:40;102086.44;;;6.29;96.14
63090;BME280;49174;43.198;27.824;2023-01-26T11:02:52;102076.44;;;6.31;97.95
63090;BME280;49174;43.198;27.824;2023-01-26T11:05:22;102074.50;;;6.42;98.37
63090;BME280;49174;43.198;27.824;2023-01-26T11:07:54;102065.22;;;6.46;97.90
63090;BME280;49174;43.198;27.824;2023-01-26T11:10:34;102059.84;;;6.46;97.10
63090;BME280;49174;43.198;27.824;2023-01-26T11:13:20;102064.16;;;6.38;97.46
63090;BME280;49174;43.198;27.824;2023-01-26T11:19:08;102071.38;;;6.37;98.02
63090;BME280;49174;43.198;27.824;2023-01-26T11:21:45;102053.44;;;6.38;97.38
63090;BME280;49174;43.198;27.824;2023-01-26T11:24:18;102051.19;;;6.33;98.22
63090;BME280;49174;43.198;27.824;2023-01-26T11:32:40;102058.59;;;6.10;100.00
63090;BME280;49174;43.198;27.824;2023-01-26T11:53:14;102030.91;;;7.28;98.03
63090;BME280;49174;43.198;27.824;2023-01-26T11:59:15;102024.81;;;7.45;95.62
63090;BME280;49174;43.198;27.824;2023-01-26T12:04:32;102013.47;;;7.61;95.17
63090;BME280;49174;43.198;27.824;2023-01-26T12:07:05;102011.19;;;7.66;92.87
63090;BME280;49174;43.198;27.824;2023-01-26T12:09:40;102013.72;;;7.68;91.78
63090;BME280;49174;43.198;27.824;2023-01-26T12:17:30;102012.09;;;7.84;93.24
63090;BME280;49174;43.198;27.824;2023-01-26T12:20:20;102009.28;;;7.86;91.33
63090;BME280;49174;43.198;27.824;2023-01-26T12:25:52;102015.59;;;7.95;91.44
63090;BME280;49174;43.198;27.824;2023-01-26T12:28:23;102007.81;;;7.92;90.26
63090;BME280;49174;43.198;27.824;2023-01-26T12:33:44;102000.38;;;7.86;90.69
63090;BME280;49174;43.198;27.824;2023-01-26T12:46:26;101990.47;;;7.76;89.93
63090;BME280;49174;43.198;27.824;2023-01-26T12:49:03;101989.66;;;7.76;89.54
63090;BME280;49174;43.198;27.824;2023-01-26T12:51:39;101979.00;;;7.84;90.16
63090;BME280;49174;43.198;27.824;2023-01-26T12:54:39;101978.56;;;7.89;89.66
63090;BME280;49174;43.198;27.824;2023-01-26T12:57:12;101980.56;;;7.87;90.20
63090;BME280;49174;43.198;27.824;2023-01-26T12:59:40;101968.97;;;7.86;90.85
63090;BME280;49174;43.198;27.824;2023-01-26T13:02:30;101963.69;;;7.94;90.63
63090;BME280;49174;43.198;27.824;2023-01-26T13:04:59;101962.44;;;7.89;90.45
63090;BME280;49174;43.198;27.824;2023-01-26T13:12:56;101932.00;;;7.88;91.76
63090;BME280;49174;43.198;27.824;2023-01-26T13:15:27;101930.03;;;7.90;92.96
63090;BME280;49174;43.198;27.824;2023-01-26T13:18:01;101922.50;;;7.94;92.24
63090;BME280;49174;43.198;27.824;2023-01-26T13:26:15;101900.25;;;7.83;94.07
63090;BME280;49174;43.198;27.824;2023-01-26T13:28:42;101898.25;;;7.86;94.66
63090;BME280;49174;43.198;27.824;2023-01-26T13:31:30;101902.84;;;7.93;95.40
63090;BME280;49174;43.198;27.824;2023-01-26T13:33:59;101902.63;;;7.87;95.78
63090;BME280;49174;43.198;27.824;2023-01-26T13:36:29;101905.72;;;8.10;95.21
63090;BME280;49174;43.198;27.824;2023-01-26T13:39:03;101908.50;;;8.18;94.49
63090;BME280;49174;43.198;27.824;2023-01-26T13:41:29;101912.28;;;8.25;93.61
63090;BME280;49174;43.198;27.824;2023-01-26T13:44:06;101913.25;;;8.24;93.96
63090;BME280;49174;43.198;27.824;2023-01-26T13:46:51;101919.34;;;8.26;94.33
63090;BME280;49174;43.198;27.824;2023-01-26T13:49:35;101912.28;;;8.25;94.23
63090;BME280;49174;43.198;27.824;2023-01-26T13:52:02;101912.31;;;8.15;95.24
63090;BME280;49174;43.198;27.824;2023-01-26T13:54:28;101904.19;;;8.07;96.29
63090;BME280;49174;43.198;27.824;2023-01-26T13:57:04;101898.09;;;8.05;95.65
63090;BME280;49174;43.198;27.824;2023-01-26T13:59:32;101894.97;;;8.10;95.26
63090;BME280;49174;43.198;27.824;2023-01-26T14:01:59;101890.75;;;8.07;94.78
63090;BME280;49174;43.198;27.824;2023-01-26T14:04:29;101893.28;;;8.09;95.44
63090;BME280;49174;43.198;27.824;2023-01-26T14:07:12;101892.44;;;8.08;95.87
63090;BME280;49174;43.198;27.824;2023-01-26T14:09:45;101887.13;;;7.98;96.70
63090;BME280;49174;43.198;27.824;2023-01-26T14:12:21;101885.88;;;7.93;97.32
63090;BME280;49174;43.198;27.824;2023-01-26T14:14:50;101886.91;;;7.92;97.97
63090;BME280;49174;43.198;27.824;2023-01-26T14:17:36;101882.81;;;7.88;98.21
63090;BME280;49174;43.198;27.824;2023-01-26T14:20:30;101877.13;;;7.91;97.48
63090;BME280;49174;43.198;27.824;2023-01-26T14:25:57;101879.59;;;7.84;96.57
63090;BME280;49174;43.198;27.824;2023-01-26T14:28:31;101878.19;;;7.80;97.47
63090;BME280;49174;43.198;27.824;2023-01-26T14:31:13;101875.66;;;7.78;97.81
63090;BME280;49174;43.198;27.824;2023-01-26T14:33:39;101879.88;;;7.81;97.24
63090;BME280;49174;43.198;27.824;2023-01-26T14:36:05;101881.25;;;7.85;96.68
63090;BME280;49174;43.198;27.824;2023-01-26T14:38:41;101879.34;;;7.77;96.83
63090;BME280;49174;43.198;27.824;2023-01-26T14:41:17;101879.09;;;7.71;95.86
63090;BME280;49174;43.198;27.824;2023-01-26T14:43:44;101883.56;;;7.80;95.22
63090;BME280;49174;43.198;27.824;2023-01-26T14:46:16;101876.50;;;7.79;93.78
63090;BME280;49174;43.198;27.824;2023-01-26T14:51:19;101874.19;;;7.66;95.72
63090;BME280;49174;43.198;27.824;2023-01-26T14:53:55;101879.41;;;7.68;95.14
63090;BME280;49174;43.198;27.824;2023-01-26T14:56:31;101879.09;;;7.71;94.64
63090;BME280;49174;43.198;27.824;2023-01-26T14:58:57;101879.47;;;7.58;95.58
63090;BME280;49174;43.198;27.824;2023-01-26T15:01:24;101877.44;;;7.60;95.56
63090;BME280;49174;43.198;27.824;2023-01-26T15:04:13;101879.28;;;7.59;95.73
63090;BME280;49174;43.198;27.824;2023-01-26T15:06:42;101870.84;;;7.54;94.99
63090;BME280;49174;43.198;27.824;2023-01-26T15:09:21;101872.97;;;7.51;95.54
63090;BME280;49174;43.198;27.824;2023-01-26T15:11:58;101863.34;;;7.58;94.75
63090;BME280;49174;43.198;27.824;2023-01-26T15:17:45;101857.38;;;7.64;94.52
63090;BME280;49174;43.198;27.824;2023-01-26T15:22:53;101853.84;;;7.64;94.13
63090;BME280;49174;43.198;27.824;2023-01-26T15:25:27;101852.44;;;7.59;94.77
63090;BME280;49174;43.198;27.824;2023-01-26T15:28:00;101840.66;;;7.70;93.66
63090;BME280;49174;43.198;27.824;2023-01-26T15:30:33;101839.63;;;7.53;93.80
63090;BME280;49174;43.198;27.824;2023-01-26T15:33:00;101840.84;;;7.59;94.05
63090;BME280;49174;43.198;27.824;2023-01-26T15:35:31;101838.22;;;7.49;93.96
63090;BME280;49174;43.198;27.824;2023-01-26T15:38:11;101831.97;;;7.58;93.65
63090;BME280;49174;43.198;27.824;2023-01-26T15:40:38;101823.19;;;7.56;93.88
